EGGW Airport Information

Runway Information
Runway 08 Length 7086 ft width 151 ft
Elevation 515 ft Threshold 0 ft Heading 74
Runway 26 Length 7086 ft Width 151 ft
Elevation 508 ft Threshold 279 ft Heading 254
Airport Frequencies
Type APP Name APP Frequency 129.55 MHZ
Type ATIS Name ATIS Frequency 120.575 MHZ
Type GND Name GND Frequency 121.75 MHZ
Type TWR Name TWR Frequency 132.55 MHZ
Airport Navaids
Airport Weather Information & NOTAM
ADDS - METARS form results

(1816 UTC 24 September 2018)
Data provider http://aviationweather.gov/metar/data/
 
METAR text: EGGW 241750Z AUTO VRB03KT 9999 NCD 12/00 Q1037
Conditions at: EGGW (LUTON AIRPORT , GB) observed 1750 UTC 24 September 2018
Temperature: 12.0°C (54°F)
Dewpoint: 0.0°C (32°F) [RH = 44%]
Pressure (altimeter): 30.62 inches Hg (1037.0 mb)
Winds: variable direction winds at 3 MPH (3 knots; 1.5 m/s)
Visibility: 6 or more miles (10+ km)
Ceiling: at least 12,000 feet AGL
Clouds: sky clear below 12,000 feet AGL
Weather: no significant weather observed at this time

METAR text: EGGW 241720Z AUTO 35004KT 300V020 9999 NCD 13/M01 Q1037
Conditions at: EGGW (LUTON AIRPORT , GB) observed 1720 UTC 24 September 2018
Temperature: 13.0°C (55°F)
Dewpoint: -1.0°C (30°F) [RH = 38%]
Pressure (altimeter): 30.62 inches Hg (1037.0 mb)
Winds: from the N (350 degrees) at 5 MPH (4 knots; 2.1 m/s)
Visibility: 6 or more miles (10+ km)
Ceiling: at least 12,000 feet AGL
Clouds: sky clear below 12,000 feet AGL
Weather: no significant weather observed at this time

Forecast for: EGGW (LUTON AIRPORT , GB)
Text: TAF EGGW 241658Z 2418/2518 33004KT 9999 FEW040
Forecast period: 1800 UTC 24 September 2018 to 1800 UTC 25 September 2018
Forecast type: FROM: standard forecast or significant change
Winds: from the NNW (330 degrees) at 5 MPH (4 knots; 2.1 m/s)
Visibility: 6 or more miles 10+ km)
Ceiling: at least 12,000 feet AGL
Clouds: few clouds at 4000 feet AGL
Weather: no significant weather forecast for this period
Text: PROB30 2503/2508 8000
Forecast period: 0300 to 0800 UTC 25 September 2018
Forecast type: PROBABLE: 30 percent likelihood of the following during this time
Visibility: 5 miles (8 km)
Ceiling: unknown
Clouds: missing
Weather: no significant weather forecast for this period